Iowa City, IA

4:47 PM CDT on April 25, 2015 (GMT -0500)
SE Iowa City | | Change Station
CLOSE
Current Station
Personal Weather Station
Location: Iowa City, IA
Elevation: 656 ft
Nearby Weather Stations

Elev 656 ft 41.63 °N, 91.48 °W | Updated 2 minutes ago

Overcast
Overcast
50.6 °F
Feels Like 50.6 °F
N
6.0
Wind Variable Wind from ENE
Gusts 9.0 mph

Today
High -- | Low -- °F
--% Chance of Precip.
Yesterday
High -- | Low -- °F
Precip. -- in
6:11 AM 7:57 PM
Waxing Crescent, 49% visible
Pressure 29.73 in
Visibility 10.0 miles
Clouds Mostly Cloudy 2300 ft
Overcast 2700 ft
Dew Point 45 °F
Humidity 80%
Rainfall 0.66 in
Snow Depth Not available.
UV 2 out of 12
Pollen 1.00 out of 12
Air Quality Not available.
Flu Activity Local Activity
METAR KIOW 252052Z AUTO 07012G19KT 10SM BKN023 OVC027 10/07 A2972 RMK AO2 SLP067 T01000067 53018

More Conditions Fewer Conditions

Pressure 29.73 in
Visibility 10.0 miles
Clouds Mostly Cloudy 2300 ft
Overcast 2700 ft
Dew Point 45 °F
Humidity 80%
Rainfall 0.66 in
Snow Depth Not available.
UV 2 out of 12
Pollen 1.00 out of 12
Air Quality Not available.
Flu Activity Local Activity
METAR KIOW 252052Z AUTO 07012G19KT 10SM BKN023 OVC027 10/07 A2972 RMK AO2 SLP067 T01000067 53018

More Conditions Fewer Conditions

10-Day Weather Forecast

Almanac

Astronomy

Apr. 25, 2015 Rise Set
Actual Time
Civil Twilight
Nautical Twilight
Astronomical Twilight
Moon
Length of Visible Light
Length of Day
Tomorrow will be .
, % of the Moon is Illuminated

Today's Extremes

State Highs State Lows

Community

WunderPhotos

Upload Photos

1,816,820 photos uploaded!

WunderBlogs® & News

Nearby

Air Quality

  Air Quality AQ Index Pollutant
Not available.

Snow Depth

Station Depth Elevation

Earthquake Activity

City Distance Mag. Time & Date
Minimum magnitude displayed is 2.5.

Coastal Water Temperatures

Place Temperature

Stations

Nearby Weather Stations

Station Location Temp. Windchill Dew Point Humidity Wind Precip. Elev Updated Type